Time;durP1;ratioP1;P1;durP2;ratioP2;P2;SDS_P1;SDS_P2;PMS_P1;PMS_P2;Temp;Humidity;BMP_temperature;BMP_pressure;BME280_temperature;BME280_humidity;BME280_pressure;Samples;Min_cycle;Max_cycle;Signal;HPM_P1;HPM_P2
2023/03/23 00:02:27;;;;;;;;;;;7.20;99.90;;;;;;5038113;28;19913;-81
2023/03/23 00:04:53;;;;;;;;;;;7.20;99.90;;;;;;5038130;28;20003;-81
2023/03/23 00:07:22;;;;;;;;;;;7.10;99.90;;;;;;5037923;28;19948;-81
2023/03/23 00:09:53;;;;;;;;;;;7.10;99.90;;;;;;5038143;28;20357;-81
2023/03/23 00:12:32;;;;;;;;;;;7.10;99.90;;;;;;5038066;28;19978;-81
2023/03/23 00:15:00;;;;;;;;;;;7.00;99.90;;;;;;5055959;28;20349;-81
2023/03/23 00:17:26;;;;;;;;;;;7.00;99.90;;;;;;5037746;28;19909;-81
2023/03/23 00:19:51;;;;;;;;;;;7.00;99.90;;;;;;5055896;28;19916;-81
2023/03/23 00:22:20;;;;;;;;;;;7.00;99.90;;;;;;5037830;28;19913;-81
2023/03/23 00:24:47;;;;;;;;;;;7.00;99.90;;;;;;5056737;28;19916;-81
2023/03/23 00:27:14;;;;;;;;;;;7.00;99.90;;;;;;5056564;28;19916;-81
2023/03/23 00:29:40;;;;;;;;;;;7.00;99.90;;;;;;5038381;28;20074;-81
2023/03/23 00:32:06;;;;;;;;;;;7.00;99.90;;;;;;5055406;28;19916;-81
2023/03/23 00:34:32;;;;;;;;;;;6.90;99.90;;;;;;5055506;28;19916;-81
2023/03/23 00:36:58;;;;;;;;;;;6.90;99.90;;;;;;5055489;28;19909;-81
2023/03/23 00:39:27;;;;;;;;;;;6.90;99.90;;;;;;5037688;28;19912;-81
2023/03/23 00:41:54;;;;;;;;;;;6.90;99.90;;;;;;5037755;28;19916;-81
2023/03/23 00:44:23;;;;;;;;;;;6.80;99.90;;;;;;5037632;28;19992;-81
2023/03/23 00:46:52;;;;;;;;;;;6.80;99.90;;;;;;5037564;28;19915;-81
2023/03/23 00:49:19;;;;;;;;;;;6.70;99.90;;;;;;5037355;28;19913;-81
2023/03/23 00:51:44;;;;;;;;;;;6.70;99.90;;;;;;5037351;28;20003;-81
2023/03/23 00:54:10;;;;;;;;;;;6.70;99.90;;;;;;5037437;28;20361;-81
2023/03/23 00:56:36;;;;;;;;;;;6.60;99.90;;;;;;5055392;28;19909;-81
2023/03/23 00:59:02;;;;;;;;;;;6.50;99.90;;;;;;5055236;28;19959;-81
2023/03/23 01:01:28;;;;;;;;;;;6.40;99.90;;;;;;5055439;28;20323;-81
2023/03/23 01:04:00;;;;;;;;;;;6.30;99.90;;;;;;5037692;28;19909;-81
2023/03/23 01:06:30;;;;;;;;;;;6.30;99.90;;;;;;5055196;28;19920;-81
2023/03/23 01:08:57;;;;;;;;;;;6.30;99.90;;;;;;5037275;28;19913;-81
2023/03/23 01:11:23;;;;;;;;;;;6.30;99.90;;;;;;5038114;28;20288;-81
2023/03/23 01:13:49;;;;;;;;;;;6.20;99.90;;;;;;5037383;28;19909;-81
2023/03/23 01:16:15;;;;;;;;;;;6.10;99.90;;;;;;5020789;28;19913;-81
2023/03/23 01:18:40;;;;;;;;;;;6.00;99.90;;;;;;5037590;28;19917;-81
2023/03/23 01:21:11;;;;;;;;;;;6.10;99.90;;;;;;5039682;28;19944;-81
2023/03/23 01:23:37;;;;;;;;;;;6.00;99.90;;;;;;5037168;28;19967;-81
2023/03/23 01:26:04;;;;;;;;;;;6.10;99.90;;;;;;5054401;28;19908;-81
2023/03/23 01:28:30;;;;;;;;;;;6.10;99.90;;;;;;5036447;28;20357;-81
2023/03/23 01:30:59;;;;;;;;;;;6.00;99.90;;;;;;5054595;28;19962;-81
2023/03/23 01:33:25;;;;;;;;;;;6.00;99.90;;;;;;5054208;28;19948;-81
2023/03/23 01:35:50;;;;;;;;;;;6.00;99.90;;;;;;5036518;28;20373;-81
2023/03/23 01:38:16;;;;;;;;;;;6.00;99.90;;;;;;5054127;28;20177;-81
2023/03/23 01:40:43;;;;;;;;;;;6.00;99.90;;;;;;5054330;28;19944;-81
2023/03/23 01:43:13;;;;;;;;;;;6.10;99.90;;;;;;5036413;28;19908;-81
2023/03/23 01:45:39;;;;;;;;;;;6.00;99.90;;;;;;5036459;28;19932;-82
2023/03/23 01:48:09;;;;;;;;;;;6.00;99.90;;;;;;5036115;28;20447;-82
2023/03/23 01:50:41;;;;;;;;;;;6.00;99.90;;;;;;5054416;28;19916;-82
2023/03/23 01:53:08;;;;;;;;;;;6.00;99.90;;;;;;5036407;28;19912;-82
2023/03/23 01:55:36;;;;;;;;;;;6.00;99.90;;;;;;5036449;28;19916;-82
2023/03/23 01:58:02;;;;;;;;;;;6.00;99.90;;;;;;5053763;28;19939;-82
2023/03/23 02:00:30;;;;;;;;;;;5.90;99.90;;;;;;5054578;28;19913;-82
2023/03/23 02:02:55;;;;;;;;;;;5.90;99.90;;;;;;5058748;28;19908;-82
2023/03/23 02:05:28;;;;;;;;;;;5.90;99.90;;;;;;5040614;28;19920;-81
2023/03/23 02:07:54;;;;;;;;;;;5.90;99.90;;;;;;5040653;28;19909;-82
2023/03/23 02:10:20;;;;;;;;;;;5.90;99.90;;;;;;5058901;28;19958;-81
2023/03/23 02:12:45;;;;;;;;;;;5.90;99.90;;;;;;5024346;28;20015;-81
2023/03/23 02:15:11;;;;;;;;;;;5.90;99.90;;;;;;5058252;28;19935;-81
2023/03/23 02:17:48;;;;;;;;;;;5.80;99.90;;;;;;5023736;28;19923;-81
2023/03/23 02:20:17;;;;;;;;;;;5.80;99.90;;;;;;5058212;28;19909;-81
2023/03/23 02:22:43;;;;;;;;;;;5.80;99.90;;;;;;5058538;28;20007;-81
2023/03/23 02:25:11;;;;;;;;;;;5.80;99.90;;;;;;5058198;28;20010;-81
2023/03/23 02:27:52;;;;;;;;;;;5.80;99.90;;;;;;5040122;28;20258;-81
2023/03/23 02:30:21;;;;;;;;;;;5.80;99.90;;;;;;5058096;28;19927;-81
2023/03/23 02:32:48;;;;;;;;;;;5.70;99.90;;;;;;5058022;28;20000;-81
2023/03/23 02:35:19;;;;;;;;;;;5.70;99.90;;;;;;5058167;28;19913;-81
2023/03/23 02:37:48;;;;;;;;;;;5.70;99.90;;;;;;5040326;28;19968;-81
2023/03/23 02:40:22;;;;;;;;;;;5.70;99.90;;;;;;5058036;28;19916;-81
2023/03/23 02:42:50;;;;;;;;;;;5.70;99.90;;;;;;5059352;28;19915;-81
2023/03/23 02:45:17;;;;;;;;;;;5.60;99.90;;;;;;5060354;28;19968;-82
2023/03/23 02:47:43;;;;;;;;;;;5.60;99.90;;;;;;5041639;28;19913;-81
2023/03/23 02:50:11;;;;;;;;;;;5.50;99.90;;;;;;5039976;28;19909;-81
2023/03/23 02:52:39;;;;;;;;;;;5.50;99.90;;;;;;5040347;28;19920;-81
2023/03/23 02:55:06;;;;;;;;;;;5.40;99.90;;;;;;5040039;28;19944;-82
2023/03/23 02:57:31;;;;;;;;;;;5.30;99.90;;;;;;5039600;28;19935;-81
2023/03/23 02:59:57;;;;;;;;;;;5.20;99.90;;;;;;5040562;28;19917;-81
2023/03/23 03:02:31;;;;;;;;;;;5.10;99.90;;;;;;5040038;28;20388;-81
2023/03/23 03:05:22;;;;;;;;;;;5.00;99.90;;;;;;5057973;28;20272;-81
2023/03/23 03:08:06;;;;;;;;;;;4.90;99.90;;;;;;5026778;28;19948;-82
2023/03/23 03:10:32;;;;;;;;;;;4.80;99.90;;;;;;5057676;28;19935;-81
2023/03/23 03:13:01;;;;;;;;;;;4.80;99.90;;;;;;5038445;28;19923;-81
2023/03/23 03:15:30;;;;;;;;;;;4.80;99.90;;;;;;5057709;28;20280;-81
2023/03/23 03:18:00;;;;;;;;;;;4.90;99.90;;;;;;5057590;28;20380;-81
2023/03/23 03:20:27;;;;;;;;;;;4.90;99.90;;;;;;5039824;28;19908;-82
2023/03/23 03:22:54;;;;;;;;;;;5.00;99.90;;;;;;5039896;28;19916;-81
2023/03/23 03:25:22;;;;;;;;;;;5.00;99.90;;;;;;5057648;28;19915;-82
2023/03/23 03:27:52;;;;;;;;;;;5.10;99.90;;;;;;5057373;28;19948;-82
2023/03/23 03:30:21;;;;;;;;;;;5.10;99.90;;;;;;5039343;28;19921;-82
2023/03/23 03:32:53;;;;;;;;;;;5.20;99.90;;;;;;5039526;28;19909;-81
2023/03/23 03:35:21;;;;;;;;;;;5.20;99.90;;;;;;5039651;28;19909;-81
2023/03/23 03:37:47;;;;;;;;;;;5.20;99.90;;;;;;5057231;28;19958;-82
2023/03/23 03:40:17;;;;;;;;;;;5.20;99.90;;;;;;5039106;28;19970;-81
2023/03/23 03:42:44;;;;;;;;;;;5.20;99.90;;;;;;5038849;28;19915;-81
2023/03/23 03:45:11;;;;;;;;;;;5.20;99.90;;;;;;5039866;28;19941;-81
2023/03/23 03:47:37;;;;;;;;;;;5.20;99.90;;;;;;5039160;28;20004;-81
2023/03/23 03:50:03;;;;;;;;;;;5.20;99.90;;;;;;5039325;28;19948;-81
2023/03/23 03:52:28;;;;;;;;;;;5.20;99.90;;;;;;5038897;28;19913;-81
2023/03/23 03:54:55;;;;;;;;;;;5.20;99.90;;;;;;5057113;28;19931;-81
2023/03/23 03:57:21;;;;;;;;;;;5.10;99.90;;;;;;5039718;28;19916;-81
2023/03/23 03:59:50;;;;;;;;;;;5.10;99.90;;;;;;5057150;28;19916;-81
2023/03/23 04:02:19;;;;;;;;;;;5.00;99.90;;;;;;5038959;28;20288;-81
2023/03/23 04:04:46;;;;;;;;;;;5.00;99.90;;;;;;5056854;28;19913;-81
2023/03/23 04:07:13;;;;;;;;;;;5.00;99.90;;;;;;5056748;28;19909;-81
2023/03/23 04:09:46;;;;;;;;;;;4.90;99.90;;;;;;5056833;28;19919;-81
2023/03/23 04:12:12;;;;;;;;;;;4.90;99.90;;;;;;5038998;28;19919;-81
2023/03/23 04:14:38;;;;;;;;;;;5.00;99.90;;;;;;5038667;28;19909;-81
2023/03/23 04:17:04;;;;;;;;;;;4.90;99.90;;;;;;5038413;28;19924;-81
2023/03/23 04:19:32;;;;;;;;;;;4.90;99.90;;;;;;5038717;28;19948;-81
2023/03/23 04:21:58;;;;;;;;;;;4.90;99.90;;;;;;5039221;28;20331;-81
2023/03/23 04:24:24;;;;;;;;;;;4.90;99.90;;;;;;5037769;28;19936;-81
2023/03/23 04:26:51;;;;;;;;;;;4.90;99.90;;;;;;5056016;28;20289;-80
2023/03/23 04:29:17;;;;;;;;;;;4.90;99.90;;;;;;5022430;28;19931;-81
2023/03/23 04:31:44;;;;;;;;;;;4.90;99.90;;;;;;5056390;28;19916;-81
2023/03/23 04:34:13;;;;;;;;;;;4.90;99.90;;;;;;5039007;28;19944;-81
2023/03/23 04:36:39;;;;;;;;;;;4.90;99.90;;;;;;5056360;28;19948;-82
2023/03/23 04:39:06;;;;;;;;;;;4.80;99.90;;;;;;5039655;28;19947;-81
2023/03/23 04:41:32;;;;;;;;;;;4.70;99.90;;;;;;5057614;28;19919;-81
2023/03/23 04:44:02;;;;;;;;;;;4.60;99.90;;;;;;5042152;28;20360;-81
2023/03/23 04:46:31;;;;;;;;;;;4.60;99.90;;;;;;5056077;28;19917;-80
2023/03/23 04:48:58;;;;;;;;;;;4.70;99.90;;;;;;5038607;28;19909;-81
2023/03/23 04:51:26;;;;;;;;;;;4.60;99.90;;;;;;5056579;28;19931;-80
2023/03/23 04:53:51;;;;;;;;;;;4.60;99.90;;;;;;5057200;28;19916;-80
2023/03/23 04:56:18;;;;;;;;;;;4.60;99.90;;;;;;5046448;28;19909;-80
2023/03/23 04:58:44;;;;;;;;;;;4.60;99.90;;;;;;5053897;28;19917;-79
2023/03/23 05:01:13;;;;;;;;;;;4.60;99.90;;;;;;5071904;28;19909;-80
2023/03/23 05:03:39;;;;;;;;;;;4.60;99.90;;;;;;5055538;28;19936;-81
2023/03/23 05:06:06;;;;;;;;;;;4.60;99.90;;;;;;5072566;28;19909;-81
2023/03/23 05:08:31;;;;;;;;;;;4.60;99.90;;;;;;5071026;28;19913;-81
2023/03/23 05:10:58;;;;;;;;;;;4.50;99.90;;;;;;5067248;28;19944;-81
2023/03/23 05:13:24;;;;;;;;;;;4.40;99.90;;;;;;5040634;28;19913;-82
2023/03/23 05:15:49;;;;;;;;;;;4.40;99.90;;;;;;5057602;28;19913;-81
2023/03/23 05:18:15;;;;;;;;;;;4.40;99.90;;;;;;5022350;28;19947;-81
2023/03/23 05:20:42;;;;;;;;;;;4.40;99.90;;;;;;5039416;28;19983;-81
2023/03/23 05:23:08;;;;;;;;;;;4.50;99.90;;;;;;5038662;28;19935;-81
2023/03/23 05:25:36;;;;;;;;;;;4.50;99.90;;;;;;5056013;28;20011;-77
2023/03/23 05:28:02;;;;;;;;;;;4.50;99.90;;;;;;5055506;28;20292;-77
2023/03/23 05:30:29;;;;;;;;;;;4.50;99.90;;;;;;5055529;28;19921;-78
2023/03/23 05:32:55;;;;;;;;;;;4.50;99.90;;;;;;5055265;28;19915;-77
2023/03/23 05:35:21;;;;;;;;;;;4.40;99.90;;;;;;5036810;28;20003;-78
2023/03/23 05:37:46;;;;;;;;;;;4.40;99.90;;;;;;5055618;28;19943;-78
2023/03/23 05:40:13;;;;;;;;;;;4.30;99.90;;;;;;5038088;28;19963;-77
2023/03/23 05:42:40;;;;;;;;;;;4.20;99.90;;;;;;5055854;28;19909;-77
2023/03/23 05:45:08;;;;;;;;;;;4.20;99.90;;;;;;5037503;28;19916;-78
2023/03/23 05:47:34;;;;;;;;;;;4.20;99.90;;;;;;5035910;28;19963;-78
2023/03/23 05:50:00;;;;;;;;;;;4.20;99.90;;;;;;5054026;28;19931;-77
2023/03/23 05:52:26;;;;;;;;;;;4.20;99.90;;;;;;5054672;28;20369;-77
2023/03/23 05:54:52;;;;;;;;;;;4.30;99.90;;;;;;5054543;28;20400;-77
2023/03/23 05:57:18;;;;;;;;;;;4.30;99.90;;;;;;5035752;28;19994;-77
2023/03/23 05:59:44;;;;;;;;;;;4.30;99.90;;;;;;5054263;28;19920;-77
2023/03/23 06:02:10;;;;;;;;;;;4.30;99.90;;;;;;5036047;28;19932;-77
2023/03/23 06:04:37;;;;;;;;;;;4.40;99.90;;;;;;5036602;28;19952;-77
2023/03/23 06:07:04;;;;;;;;;;;4.30;99.90;;;;;;5055112;28;19913;-77
2023/03/23 06:09:30;;;;;;;;;;;4.30;99.90;;;;;;5054929;28;19909;-77
2023/03/23 06:11:56;;;;;;;;;;;4.30;99.90;;;;;;5036697;28;20365;-76
2023/03/23 06:14:22;;;;;;;;;;;4.30;99.90;;;;;;5036484;28;19920;-76
2023/03/23 06:16:47;;;;;;;;;;;4.30;99.90;;;;;;5054163;28;19913;-77
2023/03/23 06:19:14;;;;;;;;;;;4.30;99.90;;;;;;5036676;28;19940;-77
2023/03/23 06:21:40;;;;;;;;;;;4.30;99.90;;;;;;5036750;28;20289;-77
2023/03/23 06:24:05;;;;;;;;;;;4.30;99.90;;;;;;5054246;28;19913;-77
2023/03/23 06:26:34;;;;;;;;;;;4.30;99.90;;;;;;5055178;28;20380;-77
2023/03/23 06:29:00;;;;;;;;;;;4.40;99.90;;;;;;5036450;28;19917;-77
2023/03/23 06:31:26;;;;;;;;;;;4.40;99.90;;;;;;5054411;28;19920;-77
2023/03/23 06:33:52;;;;;;;;;;;4.50;99.90;;;;;;5054985;28;20014;-77
2023/03/23 06:36:18;;;;;;;;;;;4.60;99.90;;;;;;5036481;28;19909;-77
2023/03/23 06:38:44;;;;;;;;;;;4.70;99.90;;;;;;5054476;28;19920;-77
2023/03/23 06:41:11;;;;;;;;;;;4.70;99.90;;;;;;5054504;28;19908;-77
2023/03/23 06:43:39;;;;;;;;;;;4.80;99.90;;;;;;5036723;28;19912;-77
2023/03/23 06:46:07;;;;;;;;;;;4.90;99.90;;;;;;5054416;28;20327;-77
2023/03/23 06:48:33;;;;;;;;;;;5.00;99.90;;;;;;5057609;28;20498;-77
2023/03/23 06:50:59;;;;;;;;;;;5.00;99.90;;;;;;5040002;28;19917;-77
2023/03/23 06:53:24;;;;;;;;;;;5.10;99.90;;;;;;5057808;28;20008;-77
2023/03/23 06:55:50;;;;;;;;;;;5.10;99.90;;;;;;5058183;28;19919;-76
2023/03/23 06:58:16;;;;;;;;;;;5.20;99.90;;;;;;5057787;28;20288;-77
2023/03/23 07:00:41;;;;;;;;;;;5.30;99.90;;;;;;5058360;28;19992;-77
2023/03/23 07:03:08;;;;;;;;;;;5.30;99.90;;;;;;5058002;28;19917;-77
2023/03/23 07:05:34;;;;;;;;;;;5.40;99.90;;;;;;5057595;28;19932;-77
2023/03/23 07:08:01;;;;;;;;;;;5.60;99.90;;;;;;5056174;28;19959;-79
2023/03/23 07:10:27;;;;;;;;;;;5.70;99.90;;;;;;5057305;28;19916;-79
2023/03/23 07:12:52;;;;;;;;;;;5.90;99.90;;;;;;5057710;28;20274;-78
2023/03/23 07:15:18;;;;;;;;;;;6.00;99.90;;;;;;5073273;28;19963;-78
2023/03/23 07:17:44;;;;;;;;;;;6.20;99.90;;;;;;5057923;28;19913;-78
2023/03/23 07:20:10;;;;;;;;;;;6.30;99.90;;;;;;5057459;28;19916;-79
2023/03/23 07:22:35;;;;;;;;;;;6.40;99.90;;;;;;5039289;28;20008;-79
2023/03/23 07:25:01;;;;;;;;;;;6.50;99.90;;;;;;5039235;28;20365;-78
2023/03/23 07:27:27;;;;;;;;;;;6.60;99.90;;;;;;5072935;28;19920;-78
2023/03/23 07:29:52;;;;;;;;;;;6.70;99.90;;;;;;5057467;28;19966;-77
2023/03/23 07:32:18;;;;;;;;;;;6.80;99.90;;;;;;5039624;28;19958;-78
2023/03/23 07:34:44;;;;;;;;;;;6.80;99.90;;;;;;5057615;28;19916;-78
2023/03/23 07:37:09;;;;;;;;;;;6.90;99.90;;;;;;5057031;28;19913;-78
2023/03/23 07:39:35;;;;;;;;;;;7.00;99.90;;;;;;5057281;28;19917;-78
2023/03/23 07:42:01;;;;;;;;;;;7.00;99.90;;;;;;5057106;28;20441;-78
2023/03/23 07:44:27;;;;;;;;;;;7.00;99.90;;;;;;5056904;28;19912;-78
2023/03/23 07:46:52;;;;;;;;;;;7.10;99.90;;;;;;5039074;28;19962;-78
2023/03/23 07:49:18;;;;;;;;;;;7.10;99.90;;;;;;5039696;28;19988;-78
2023/03/23 07:51:44;;;;;;;;;;;7.10;99.90;;;;;;5058444;28;19909;-78
2023/03/23 07:54:10;;;;;;;;;;;7.20;99.90;;;;;;5056746;28;19909;-78
2023/03/23 07:56:36;;;;;;;;;;;7.20;99.90;;;;;;5056800;28;20453;-78
2023/03/23 07:59:04;;;;;;;;;;;7.20;99.90;;;;;;5055624;28;20373;-78
2023/03/23 08:01:30;;;;;;;;;;;7.30;99.90;;;;;;5056771;28;19974;-78
2023/03/23 08:03:57;;;;;;;;;;;7.30;99.90;;;;;;5071173;28;19987;-78
2023/03/23 08:06:23;;;;;;;;;;;7.40;99.90;;;;;;5054123;28;20373;-78
2023/03/23 08:08:49;;;;;;;;;;;7.40;99.90;;;;;;5055719;28;20005;-78
2023/03/23 08:11:15;;;;;;;;;;;7.50;99.90;;;;;;5055583;28;20362;-78
2023/03/23 08:13:44;;;;;;;;;;;7.60;99.90;;;;;;5037752;28;19912;-78
2023/03/23 08:16:10;;;;;;;;;;;7.70;99.90;;;;;;5037679;28;19913;-78
2023/03/23 08:18:36;;;;;;;;;;;7.80;99.90;;;;;;5037394;28;20384;-78
2023/03/23 08:21:04;;;;;;;;;;;7.90;99.90;;;;;;5037797;28;19909;-79
2023/03/23 08:23:30;;;;;;;;;;;8.00;99.90;;;;;;5037469;28;19955;-78
2023/03/23 08:25:56;;;;;;;;;;;8.10;99.90;;;;;;5055435;28;19909;-78
2023/03/23 08:28:22;;;;;;;;;;;8.10;99.90;;;;;;5037447;28;19913;-78
2023/03/23 08:30:48;;;;;;;;;;;8.20;99.90;;;;;;5037560;28;19956;-78
2023/03/23 08:33:14;;;;;;;;;;;8.40;99.90;;;;;;5055399;28;19916;-78
2023/03/23 08:35:39;;;;;;;;;;;8.50;99.90;;;;;;5055438;28;19935;-78
2023/03/23 08:38:05;;;;;;;;;;;8.60;99.90;;;;;;5055328;28;19913;-78
2023/03/23 08:40:32;;;;;;;;;;;8.70;99.90;;;;;;5053839;28;19920;-78
2023/03/23 08:42:58;;;;;;;;;;;8.80;99.90;;;;;;5037440;28;20407;-78
2023/03/23 08:45:24;;;;;;;;;;;8.80;99.90;;;;;;5037684;28;20363;-79
2023/03/23 08:47:51;;;;;;;;;;;8.90;99.90;;;;;;5055130;28;20292;-78
2023/03/23 08:50:21;;;;;;;;;;;9.00;99.90;;;;;;5055185;28;19915;-78
2023/03/23 08:52:46;;;;;;;;;;;9.10;99.90;;;;;;5037317;28;20262;-78
2023/03/23 08:55:12;;;;;;;;;;;9.30;99.90;;;;;;5037172;28;19916;-78
2023/03/23 08:57:38;;;;;;;;;;;9.40;99.90;;;;;;5037365;28;20361;-78
2023/03/23 09:00:13;;;;;;;;;;;9.60;99.90;;;;;;5054902;28;19913;-79
2023/03/23 09:02:40;;;;;;;;;;;9.80;99.90;;;;;;5037290;28;19996;-78
2023/03/23 09:05:06;;;;;;;;;;;10.00;99.90;;;;;;5054806;28;19912;-78
2023/03/23 09:07:32;;;;;;;;;;;10.20;99.90;;;;;;5053319;28;19917;-78
2023/03/23 09:09:58;;;;;;;;;;;10.40;99.90;;;;;;5037201;28;20426;-78
2023/03/23 09:12:23;;;;;;;;;;;10.50;99.90;;;;;;5054899;28;20430;-78
2023/03/23 09:14:49;;;;;;;;;;;10.70;99.90;;;;;;5036936;28;20444;-77
2023/03/23 09:17:15;;;;;;;;;;;10.80;99.90;;;;;;5054688;28;19956;-77
2023/03/23 09:19:41;;;;;;;;;;;10.80;99.90;;;;;;5054492;28;19950;-77
2023/03/23 09:22:06;;;;;;;;;;;10.90;99.90;;;;;;5054577;28;19913;-77
2023/03/23 09:24:32;;;;;;;;;;;11.00;99.90;;;;;;5036681;28;19974;-78
2023/03/23 09:26:58;;;;;;;;;;;11.10;99.90;;;;;;5070415;28;19917;-77
2023/03/23 09:29:25;;;;;;;;;;;11.30;99.90;;;;;;5054848;28;20297;-77
2023/03/23 09:31:50;;;;;;;;;;;11.40;99.90;;;;;;5036775;28;19920;-77
2023/03/23 09:34:16;;;;;;;;;;;11.50;99.90;;;;;;5054493;28;19912;-77
2023/03/23 09:36:45;;;;;;;;;;;11.60;99.90;;;;;;5053020;28;19936;-77
2023/03/23 09:39:11;;;;;;;;;;;11.70;99.90;;;;;;5054341;28;19913;-77
2023/03/23 09:41:44;;;;;;;;;;;11.80;99.90;;;;;;5054619;28;19940;-78
2023/03/23 09:44:16;;;;;;;;;;;11.90;99.90;;;;;;5036522;28;19971;-77
2023/03/23 09:46:41;;;;;;;;;;;11.90;99.90;;;;;;5054234;28;19909;-77
2023/03/23 09:49:16;;;;;;;;;;;12.00;99.90;;;;;;5054475;28;19935;-77
2023/03/23 09:51:42;;;;;;;;;;;12.10;99.90;;;;;;5054138;28;19909;-77
2023/03/23 09:54:11;;;;;;;;;;;12.10;99.90;;;;;;5054187;28;20003;-78
2023/03/23 09:56:37;;;;;;;;;;;12.20;99.90;;;;;;5054136;28;19935;-77
2023/03/23 09:59:21;;;;;;;;;;;12.30;99.90;;;;;;5036325;28;20007;-77
2023/03/23 10:01:49;;;;;;;;;;;12.40;99.90;;;;;;5054379;28;20423;-78
2023/03/23 10:04:17;;;;;;;;;;;12.60;99.90;;;;;;5054068;28;20250;-77
2023/03/23 10:06:45;;;;;;;;;;;12.80;99.90;;;;;;5053970;28;20369;-78
2023/03/23 10:09:19;;;;;;;;;;;12.80;99.90;;;;;;5054355;28;19909;-77
2023/03/23 10:11:47;;;;;;;;;;;13.00;99.90;;;;;;5036311;28;19909;-77
2023/03/23 10:14:22;;;;;;;;;;;13.10;99.90;;;;;;5054140;28;19909;-77
2023/03/23 10:17:12;;;;;;;;;;;13.30;99.90;;;;;;5036128;28;19909;-77
2023/03/23 10:19:59;;;;;;;;;;;13.50;99.90;;;;;;5054205;28;20294;-77
2023/03/23 10:22:32;;;;;;;;;;;13.60;99.90;;;;;;5056076;28;19999;-78
2023/03/23 10:25:27;;;;;;;;;;;13.80;99.90;;;;;;5057706;28;19920;-77
2023/03/23 10:27:52;;;;;;;;;;;14.00;99.90;;;;;;5044448;28;19948;-77
2023/03/23 10:30:21;;;;;;;;;;;14.30;99.90;;;;;;5057729;28;19917;-77
2023/03/23 10:32:51;;;;;;;;;;;14.40;99.90;;;;;;5040025;28;20365;-78
2023/03/23 10:35:20;;;;;;;;;;;14.60;99.90;;;;;;5040051;28;19919;-77
2023/03/23 10:37:52;;;;;;;;;;;14.70;99.90;;;;;;5057679;28;19974;-77
2023/03/23 10:40:21;;;;;;;;;;;14.90;99.90;;;;;;5057652;28;19913;-77
2023/03/23 10:42:47;;;;;;;;;;;14.90;99.90;;;;;;5057991;28;19962;-77
2023/03/23 10:45:19;;;;;;;;;;;15.00;99.90;;;;;;5057710;28;19944;-78
2023/03/23 10:48:03;;;;;;;;;;;15.10;99.90;;;;;;5057513;28;19936;-77
2023/03/23 10:50:30;;;;;;;;;;;15.20;99.90;;;;;;5057519;28;19916;-77
2023/03/23 10:52:57;;;;;;;;;;;15.40;99.90;;;;;;5057473;28;19909;-77
2023/03/23 10:55:24;;;;;;;;;;;15.40;99.90;;;;;;5039664;28;19916;-78
2023/03/23 10:58:01;;;;;;;;;;;15.50;99.90;;;;;;5057412;28;19916;-77
2023/03/23 11:00:27;;;;;;;;;;;15.50;99.90;;;;;;5057332;28;20520;-77
2023/03/23 11:03:11;;;;;;;;;;;15.60;99.90;;;;;;5057413;28;19948;-77
2023/03/23 11:05:37;;;;;;;;;;;15.70;99.90;;;;;;5057453;28;19931;-77
2023/03/23 11:08:03;;;;;;;;;;;15.80;98.60;;;;;;5057194;28;20361;-78
2023/03/23 11:10:37;;;;;;;;;;;15.80;99.20;;;;;;5056120;28;20320;-77
2023/03/23 11:13:04;;;;;;;;;;;15.80;97.80;;;;;;5057502;28;19909;-77
2023/03/23 11:15:40;;;;;;;;;;;15.90;99.90;;;;;;5039284;28;19913;-77
2023/03/23 11:18:09;;;;;;;;;;;16.10;99.90;;;;;;5057121;28;20323;-77
2023/03/23 11:20:42;;;;;;;;;;;16.30;97.80;;;;;;5039376;28;20369;-77
2023/03/23 11:23:10;;;;;;;;;;;16.40;98.60;;;;;;5057273;28;19913;-77
2023/03/23 11:25:50;;;;;;;;;;;16.40;97.40;;;;;;5057359;28;19912;-77
2023/03/23 11:28:15;;;;;;;;;;;16.50;95.80;;;;;;5038925;28;19948;-77
2023/03/23 11:30:41;;;;;;;;;;;16.60;94.60;;;;;;5072407;28;19928;-78
2023/03/23 11:33:08;;;;;;;;;;;16.70;95.20;;;;;;5047967;28;19923;-77
2023/03/23 11:35:33;;;;;;;;;;;16.70;93.20;;;;;;5038478;28;19948;-77
2023/03/23 11:37:59;;;;;;;;;;;16.70;90.60;;;;;;5056556;28;19919;-78
2023/03/23 11:40:27;;;;;;;;;;;16.60;92.70;;;;;;5038809;28;19908;-77
2023/03/23 11:42:52;;;;;;;;;;;16.60;92.30;;;;;;5056853;28;19959;-77
2023/03/23 11:45:18;;;;;;;;;;;16.70;92.10;;;;;;5056724;28;19909;-77
2023/03/23 11:47:49;;;;;;;;;;;16.80;93.30;;;;;;5056838;28;19955;-77
2023/03/23 11:50:22;;;;;;;;;;;16.80;92.90;;;;;;5038751;28;19913;-77
2023/03/23 11:52:47;;;;;;;;;;;16.90;91.80;;;;;;5056399;28;19912;-77
2023/03/23 11:55:17;;;;;;;;;;;17.00;90.10;;;;;;5038756;28;20296;-77
2023/03/23 11:57:43;;;;;;;;;;;17.00;88.70;;;;;;5038402;28;19958;-78
2023/03/23 12:00:19;;;;;;;;;;;17.00;90.20;;;;;;5038155;28;19908;-77
2023/03/23 12:02:51;;;;;;;;;;;17.00;89.80;;;;;;5038382;28;19909;-77
2023/03/23 12:05:22;;;;;;;;;;;17.10;89.90;;;;;;5056131;28;19959;-77
2023/03/23 12:08:00;;;;;;;;;;;17.10;88.00;;;;;;5056195;28;19919;-78
2023/03/23 12:10:45;;;;;;;;;;;17.20;86.40;;;;;;5038520;28;19931;-77
2023/03/23 12:13:17;;;;;;;;;;;17.20;86.30;;;;;;5038593;28;20403;-77
2023/03/23 12:15:57;;;;;;;;;;;17.30;85.30;;;;;;5038081;28;19915;-77
2023/03/23 12:18:42;;;;;;;;;;;17.30;81.50;;;;;;5038702;28;20304;-77
2023/03/23 12:21:27;;;;;;;;;;;17.30;81.00;;;;;;5055912;28;19958;-77
2023/03/23 12:23:53;;;;;;;;;;;17.40;80.40;;;;;;5055925;28;19909;-77
2023/03/23 12:26:26;;;;;;;;;;;17.40;82.50;;;;;;5056126;28;20283;-77
2023/03/23 12:28:51;;;;;;;;;;;17.40;82.30;;;;;;5055902;28;19912;-77
2023/03/23 12:31:40;;;;;;;;;;;17.40;80.70;;;;;;5038057;28;19939;-78
2023/03/23 12:34:17;;;;;;;;;;;17.40;81.70;;;;;;5055668;28;19909;-77
2023/03/23 12:36:43;;;;;;;;;;;17.50;84.70;;;;;;5055537;28;19909;-77
2023/03/23 12:39:19;;;;;;;;;;;17.50;87.20;;;;;;5055364;28;20266;-77
2023/03/23 12:41:58;;;;;;;;;;;17.60;85.90;;;;;;5037529;28;20043;-77
2023/03/23 12:44:29;;;;;;;;;;;17.60;87.10;;;;;;5055682;28;19941;-77
2023/03/23 12:46:58;;;;;;;;;;;17.70;86.60;;;;;;5055858;28;19916;-77
2023/03/23 12:49:39;;;;;;;;;;;17.70;85.20;;;;;;5055414;28;19909;-77
2023/03/23 12:52:14;;;;;;;;;;;17.80;85.30;;;;;;5055693;28;19909;-77
2023/03/23 12:54:51;;;;;;;;;;;17.90;82.60;;;;;;5055160;28;19962;-77
2023/03/23 12:57:36;;;;;;;;;;;18.00;80.20;;;;;;5055314;28;19944;-77
2023/03/23 13:00:17;;;;;;;;;;;18.10;83.10;;;;;;5037055;28;19913;-77
2023/03/23 13:03:05;;;;;;;;;;;18.10;80.50;;;;;;5055304;28;19909;-77
2023/03/23 13:05:46;;;;;;;;;;;18.20;83.10;;;;;;5054994;28;19909;-78
2023/03/23 13:08:15;;;;;;;;;;;18.30;85.50;;;;;;5054991;28;19909;-77
2023/03/23 13:10:48;;;;;;;;;;;18.40;77.60;;;;;;5055144;28;19915;-77
2023/03/23 13:13:19;;;;;;;;;;;18.40;78.50;;;;;;5037276;28;19909;-77
2023/03/23 13:16:07;;;;;;;;;;;18.50;78.00;;;;;;5055266;28;20421;-77
2023/03/23 13:18:35;;;;;;;;;;;18.50;77.80;;;;;;5055024;28;20276;-77
2023/03/23 13:21:06;;;;;;;;;;;18.50;77.10;;;;;;5054424;28;19909;-76
2023/03/23 13:23:36;;;;;;;;;;;18.60;78.80;;;;;;5036275;28;19995;-76
2023/03/23 13:26:21;;;;;;;;;;;18.70;78.80;;;;;;5054254;28;19908;-76
2023/03/23 13:29:05;;;;;;;;;;;18.80;78.80;;;;;;5054148;28;20397;-76
2023/03/23 13:31:33;;;;;;;;;;;18.90;75.60;;;;;;5054943;28;19916;-77
2023/03/23 13:34:19;;;;;;;;;;;18.90;74.80;;;;;;5036872;28;20321;-77
2023/03/23 13:36:52;;;;;;;;;;;18.90;75.30;;;;;;5040344;28;20339;-77
2023/03/23 13:39:24;;;;;;;;;;;18.90;75.90;;;;;;5054691;28;19924;-77
2023/03/23 13:42:08;;;;;;;;;;;18.90;72.10;;;;;;5036798;28;19952;-77
2023/03/23 13:44:40;;;;;;;;;;;18.80;71.50;;;;;;5054720;28;19986;-76
2023/03/23 13:47:08;;;;;;;;;;;18.70;71.70;;;;;;5054232;28;19909;-80
2023/03/23 13:49:44;;;;;;;;;;;18.60;70.40;;;;;;5036065;28;19909;-77
2023/03/23 13:52:36;;;;;;;;;;;18.60;68.50;;;;;;5053840;28;19909;-76
2023/03/23 13:55:27;;;;;;;;;;;18.60;65.70;;;;;;5023081;28;20017;-77
2023/03/23 13:57:57;;;;;;;;;;;18.60;67.60;;;;;;5022378;28;20030;-77
2023/03/23 14:00:26;;;;;;;;;;;18.60;68.90;;;;;;5054063;28;19909;-76
2023/03/23 14:02:59;;;;;;;;;;;18.50;69.00;;;;;;5053642;28;19909;-76
2023/03/23 14:05:33;;;;;;;;;;;18.50;68.40;;;;;;5054299;28;20272;-76
2023/03/23 14:08:08;;;;;;;;;;;18.50;68.80;;;;;;5053595;28;19951;-76
2023/03/23 14:10:38;;;;;;;;;;;18.40;68.10;;;;;;5035749;28;20353;-77
2023/03/23 14:13:06;;;;;;;;;;;18.40;68.30;;;;;;5053934;28;19912;-76
2023/03/23 14:15:37;;;;;;;;;;;18.30;67.80;;;;;;5053717;28;20279;-76
2023/03/23 14:18:04;;;;;;;;;;;18.40;71.30;;;;;;5053632;28;19909;-77
2023/03/23 14:20:34;;;;;;;;;;;18.30;69.80;;;;;;5053575;28;19909;-77
2023/03/23 14:23:00;;;;;;;;;;;18.30;68.00;;;;;;5053552;28;19915;-76
2023/03/23 14:25:28;;;;;;;;;;;18.30;67.80;;;;;;5053442;28;20369;-77
2023/03/23 14:27:54;;;;;;;;;;;18.30;68.50;;;;;;5053438;28;19916;-76
2023/03/23 14:30:21;;;;;;;;;;;18.30;68.40;;;;;;5053374;28;19962;-76
2023/03/23 14:32:47;;;;;;;;;;;18.30;68.70;;;;;;5053679;28;19975;-76
2023/03/23 14:35:25;;;;;;;;;;;18.40;66.50;;;;;;5053397;28;19909;-77
2023/03/23 14:37:51;;;;;;;;;;;18.40;66.40;;;;;;5053426;28;19978;-77